Abadan, Iran
Current Conditions -  °F | °C
As of 11:00 AM on Monday 22 Dec 2014 (Local Time) from OIAA Reporting Station
Clear Clear  
Wind Chill: 57°   Ceiling: Unl
Heat Index: 57°   Visibility: 5mi
Dew Point: 46°   Wind: 12mph
Humidity: 67%   Direction: 310°NW
Pressure: 30.06"   Gusts: NA
Location:  30.33°N, 48.28°E
Report Text: OIAA 220700Z 31010KT 8000 SKC 14/08 Q1018
Loading
Personal Weather Stations






























Interactive Weather Map New forecast layout! Learn more

10-Day Weather Forecast

Advertisements
Track Severe Weather on mobile